createdAt,value
2023-02-14T00:00:04.624Z,4.62
2023-02-14T00:02:31.628Z,4.51
2023-02-14T00:04:58.416Z,4.42
2023-02-14T00:07:25.536Z,4.43
2023-02-14T00:09:52.162Z,4.47
2023-02-14T00:12:18.788Z,4.50
2023-02-14T00:14:45.447Z,4.59
2023-02-14T00:17:12.348Z,4.63
2023-02-14T00:19:39.006Z,4.64
2023-02-14T00:22:05.730Z,4.65
2023-02-14T00:24:32.479Z,4.61
2023-02-14T00:26:59.124Z,4.57
2023-02-14T00:29:28.300Z,4.73
2023-02-14T00:31:55.308Z,4.84
2023-02-14T00:34:21.952Z,4.83
2023-02-14T00:36:48.714Z,4.71
2023-02-14T00:39:15.896Z,4.64
2023-02-14T00:41:42.671Z,4.70
2023-02-14T00:44:09.708Z,4.75
2023-02-14T00:46:36.335Z,4.82
2023-02-14T00:49:02.967Z,4.86
2023-02-14T00:51:29.940Z,4.85
2023-02-14T00:53:56.596Z,4.87
2023-02-14T00:56:23.417Z,4.88
2023-02-14T00:58:50.234Z,4.85
2023-02-14T01:01:16.945Z,4.81
2023-02-14T01:03:43.792Z,4.79
2023-02-14T01:06:10.448Z,4.78
2023-02-14T01:08:37.152Z,4.73
2023-02-14T01:11:20.527Z,4.73
2023-02-14T01:13:47.940Z,4.75
2023-02-14T01:16:16.749Z,4.65
2023-02-14T01:18:43.394Z,4.61
2023-02-14T01:21:25.096Z,4.59
2023-02-14T01:23:53.383Z,4.54
2023-02-14T01:26:20.366Z,4.54
2023-02-14T01:28:47.278Z,4.52
2023-02-14T01:31:24.759Z,4.44
2023-02-14T01:33:51.693Z,4.43
2023-02-14T01:36:23.082Z,4.33
2023-02-14T01:38:57.673Z,4.32
2023-02-14T01:41:24.703Z,4.40
2023-02-14T01:44:02.930Z,4.43
2023-02-14T01:46:31.600Z,4.47
2023-02-14T01:49:14.500Z,4.52
2023-02-14T01:51:48.910Z,4.54
2023-02-14T01:54:15.536Z,4.51
2023-02-14T01:56:50.085Z,4.52
2023-02-14T01:59:18.932Z,4.52
2023-02-14T02:01:45.994Z,4.48
2023-02-14T02:04:17.702Z,4.47
2023-02-14T02:06:51.144Z,4.47
2023-02-14T02:09:33.609Z,4.53
2023-02-14T02:12:01.241Z,4.46
2023-02-14T02:14:27.955Z,4.34
2023-02-14T02:17:28.722Z,4.33
2023-02-14T02:20:17.325Z,4.30
2023-02-14T02:23:02.590Z,4.20
2023-02-14T02:25:50.979Z,4.17
2023-02-14T02:28:26.909Z,4.13
2023-02-14T02:30:56.579Z,4.23
2023-02-14T02:33:45.204Z,4.27
2023-02-14T02:36:36.617Z,4.28
2023-02-14T02:39:03.160Z,4.21
2023-02-14T02:41:48.099Z,4.08
2023-02-14T02:44:45.826Z,3.99
2023-02-14T02:47:32.214Z,4.02
2023-02-14T02:50:19.850Z,3.95
2023-02-14T02:53:07.638Z,3.96
2023-02-14T02:55:54.158Z,3.98
2023-02-14T02:58:20.817Z,4.00
2023-02-14T03:00:47.441Z,4.01
2023-02-14T03:03:14.073Z,3.97
2023-02-14T03:05:40.781Z,3.99
2023-02-14T03:08:07.404Z,4.00
2023-02-14T03:10:36.307Z,4.04
2023-02-14T03:13:24.591Z,4.11
2023-02-14T03:16:16.206Z,4.14
2023-02-14T03:18:44.588Z,4.11
2023-02-14T03:21:28.877Z,4.07
2023-02-14T03:24:17.208Z,4.11
2023-02-14T03:27:03.068Z,4.11
2023-02-14T03:29:47.907Z,4.17
2023-02-14T03:32:38.970Z,4.14
2023-02-14T03:35:20.293Z,4.14
2023-02-14T03:38:00.842Z,4.16
2023-02-14T03:40:41.981Z,4.20
2023-02-14T03:43:19.421Z,4.22
2023-02-14T03:45:52.327Z,4.17
2023-02-14T03:48:19.676Z,4.14
2023-02-14T03:50:46.632Z,4.11
2023-02-14T03:53:13.289Z,4.04
2023-02-14T03:56:22.281Z,4.00
2023-02-14T03:58:51.055Z,3.98
2023-02-14T04:01:37.050Z,3.97
2023-02-14T04:04:04.746Z,4.03
2023-02-14T04:06:31.397Z,4.02
2023-02-14T04:08:58.122Z,4.00
2023-02-14T04:11:24.871Z,3.84
2023-02-14T04:13:51.568Z,3.90
2023-02-14T04:16:18.289Z,3.91
2023-02-14T04:18:44.973Z,3.89
2023-02-14T04:21:11.603Z,3.91
2023-02-14T04:23:38.341Z,3.89
2023-02-14T04:26:05.037Z,3.85
2023-02-14T04:28:31.836Z,3.83
2023-02-14T04:31:02.189Z,3.81
2023-02-14T04:33:29.277Z,3.81
2023-02-14T04:35:55.932Z,3.76
2023-02-14T04:38:22.682Z,3.78
2023-02-14T04:40:49.860Z,3.74
2023-02-14T04:43:16.504Z,3.73
2023-02-14T04:45:43.172Z,3.71
2023-02-14T04:48:09.930Z,3.76
2023-02-14T04:50:36.603Z,3.76
2023-02-14T04:53:03.265Z,3.78
2023-02-14T04:55:29.935Z,3.72
2023-02-14T04:57:56.866Z,3.78
2023-02-14T05:00:23.526Z,3.64
2023-02-14T05:02:50.167Z,3.60
2023-02-14T05:05:16.829Z,3.52
2023-02-14T05:07:43.492Z,3.48
2023-02-14T05:10:10.530Z,3.51
2023-02-14T05:12:37.167Z,3.45
2023-02-14T05:15:03.877Z,3.45
2023-02-14T05:17:30.525Z,3.43
2023-02-14T05:19:57.166Z,3.39
2023-02-14T05:22:23.817Z,3.42
2023-02-14T05:24:50.488Z,3.49
2023-02-14T05:27:17.129Z,3.59
2023-02-14T05:29:43.774Z,3.60
2023-02-14T05:32:10.499Z,3.53
2023-02-14T05:34:37.190Z,3.52
2023-02-14T05:37:03.825Z,3.58
2023-02-14T05:39:30.507Z,3.50
2023-02-14T05:41:59.266Z,3.54
2023-02-14T05:44:26.092Z,3.53
2023-02-14T05:46:52.774Z,3.56
2023-02-14T05:49:19.438Z,3.64
2023-02-14T05:51:46.093Z,3.54
2023-02-14T05:54:12.750Z,3.45
2023-02-14T05:56:39.387Z,3.40
2023-02-14T05:59:06.038Z,3.39
2023-02-14T06:01:32.704Z,3.44
2023-02-14T06:03:59.442Z,3.49
2023-02-14T06:06:26.134Z,3.52
2023-02-14T06:08:52.758Z,3.58
2023-02-14T06:11:19.451Z,3.62
2023-02-14T06:13:46.203Z,3.69
2023-02-14T06:16:12.924Z,3.65
2023-02-14T06:18:39.583Z,3.65
2023-02-14T06:21:06.364Z,3.63
2023-02-14T06:23:33.008Z,3.57
2023-02-14T06:25:59.659Z,3.57
2023-02-14T06:28:26.296Z,3.56
2023-02-14T06:30:52.999Z,3.52
2023-02-14T06:33:19.703Z,3.48
2023-02-14T06:35:46.335Z,3.47
2023-02-14T06:38:12.990Z,3.39
2023-02-14T06:40:39.642Z,3.41
2023-02-14T06:43:06.292Z,3.40
2023-02-14T06:45:32.966Z,3.42
2023-02-14T06:47:59.619Z,3.27
2023-02-14T06:50:26.266Z,3.22
2023-02-14T06:52:52.916Z,3.31
2023-02-14T06:55:19.554Z,3.35
2023-02-14T06:57:46.211Z,3.33
2023-02-14T07:00:13.182Z,3.31
2023-02-14T07:02:39.879Z,3.36
2023-02-14T07:05:06.768Z,3.44
2023-02-14T07:07:33.420Z,3.45
2023-02-14T07:10:03.762Z,3.49
2023-02-14T07:12:30.418Z,3.57
2023-02-14T07:14:57.099Z,3.59
2023-02-14T07:17:23.766Z,3.64
2023-02-14T07:19:50.388Z,3.67
2023-02-14T07:22:17.073Z,3.66
2023-02-14T07:24:43.736Z,3.70
2023-02-14T07:27:10.393Z,3.73
2023-02-14T07:29:37.050Z,3.64
2023-02-14T07:32:03.841Z,3.61
2023-02-14T07:34:30.582Z,3.63
2023-02-14T07:36:57.218Z,3.63
2023-02-14T07:39:23.846Z,3.72
2023-02-14T07:41:50.500Z,3.79
2023-02-14T07:44:17.158Z,3.90
2023-02-14T07:46:43.806Z,4.04
2023-02-14T07:49:10.464Z,4.20
2023-02-14T07:51:37.181Z,4.37
2023-02-14T07:54:03.855Z,4.52
2023-02-14T07:56:30.518Z,4.64
2023-02-14T07:58:57.242Z,4.77
2023-02-14T08:01:23.946Z,4.97
2023-02-14T08:03:50.596Z,5.17
2023-02-14T08:06:17.783Z,5.33
2023-02-14T08:08:44.518Z,5.44
2023-02-14T08:11:11.170Z,5.60
2023-02-14T08:13:37.847Z,5.64
2023-02-14T08:16:04.576Z,5.78
2023-02-14T08:18:40.773Z,5.96
2023-02-14T08:21:08.506Z,6.08
2023-02-14T08:23:35.150Z,6.20
2023-02-14T08:26:01.779Z,6.33
2023-02-14T08:28:28.427Z,6.45
2023-02-14T08:30:55.178Z,6.64
2023-02-14T08:33:21.861Z,6.92
2023-02-14T08:35:48.553Z,7.25
2023-02-14T08:38:15.180Z,7.78
2023-02-14T08:40:41.850Z,9.28
2023-02-14T08:43:08.502Z,11.85
2023-02-14T08:45:35.249Z,13.59
2023-02-14T08:48:05.904Z,14.36
2023-02-14T08:50:32.799Z,15.43
2023-02-14T08:52:59.489Z,16.65
2023-02-14T08:55:26.147Z,17.18
2023-02-14T08:57:54.533Z,17.29
2023-02-14T09:00:21.558Z,17.54
2023-02-14T09:02:51.053Z,18.43
2023-02-14T09:05:17.844Z,19.55
2023-02-14T09:07:44.628Z,20.40
2023-02-14T09:10:11.283Z,21.01
2023-02-14T09:12:41.636Z,21.62
2023-02-14T09:15:09.239Z,22.17
2023-02-14T09:17:36.580Z,22.23
2023-02-14T09:20:04.134Z,22.65
2023-02-14T09:22:30.810Z,22.98
2023-02-14T09:24:57.470Z,23.14
2023-02-14T09:27:24.134Z,23.23
2023-02-14T09:29:50.780Z,23.24
2023-02-14T09:32:17.595Z,23.28
2023-02-14T09:34:44.301Z,23.52
2023-02-14T09:37:11.459Z,23.51
2023-02-14T09:39:38.359Z,23.55
2023-02-14T09:42:42.945Z,23.16
2023-02-14T09:45:26.020Z,22.80
2023-02-14T09:47:54.399Z,21.63
2023-02-14T09:50:27.882Z,21.11
2023-02-14T09:52:59.154Z,20.47
2023-02-14T09:55:27.725Z,19.86
2023-02-14T09:58:03.403Z,19.22
2023-02-14T10:00:33.620Z,18.22
2023-02-14T10:03:16.840Z,16.96
2023-02-14T10:05:48.338Z,16.67
2023-02-14T10:08:41.597Z,16.52
2023-02-14T10:11:13.407Z,16.23
2023-02-14T10:13:46.354Z,15.94
2023-02-14T10:16:31.678Z,15.56
2023-02-14T10:19:03.936Z,15.28
2023-02-14T10:21:39.317Z,15.08
2023-02-14T10:24:21.032Z,14.75
2023-02-14T10:26:48.447Z,14.59
2023-02-14T10:29:16.549Z,14.42
2023-02-14T10:31:49.057Z,14.26
2023-02-14T10:34:36.846Z,14.21
2023-02-14T10:37:15.459Z,14.23
2023-02-14T10:39:57.592Z,14.19
2023-02-14T10:42:48.917Z,13.91
2023-02-14T10:45:24.540Z,13.73
2023-02-14T10:48:24.155Z,13.36
2023-02-14T10:50:56.369Z,13.10
2023-02-14T10:53:44.280Z,13.12
2023-02-14T10:56:26.465Z,13.22
2023-02-14T10:58:53.164Z,13.00
2023-02-14T11:01:19.910Z,13.06
2023-02-14T11:03:55.263Z,13.18
2023-02-14T11:06:21.973Z,13.28
2023-02-14T11:08:48.619Z,13.25
2023-02-14T11:11:17.833Z,13.19
2023-02-14T11:13:44.509Z,13.19
2023-02-14T11:16:12.709Z,12.96
2023-02-14T11:18:40.096Z,12.85
2023-02-14T11:21:14.797Z,12.78
2023-02-14T11:23:43.253Z,12.82
2023-02-14T11:26:25.657Z,12.86
2023-02-14T11:28:54.315Z,12.81
2023-02-14T11:31:28.999Z,12.78
2023-02-14T11:33:55.749Z,12.70
2023-02-14T11:36:22.406Z,12.44
2023-02-14T11:39:10.864Z,12.32
2023-02-14T11:41:48.038Z,12.27
2023-02-14T11:44:20.079Z,12.12
2023-02-14T11:46:53.160Z,12.02
2023-02-14T11:49:27.555Z,11.74
2023-02-14T11:51:54.306Z,11.81
2023-02-14T11:54:33.623Z,11.82
2023-02-14T11:57:21.637Z,11.73
2023-02-14T11:59:49.557Z,11.80
2023-02-14T12:02:25.745Z,11.79
2023-02-14T12:04:54.178Z,11.66
2023-02-14T12:07:32.309Z,11.62
2023-02-14T12:10:15.557Z,11.36
2023-02-14T12:12:48.878Z,11.12
2023-02-14T12:15:28.413Z,11.16
2023-02-14T12:18:20.935Z,11.20
2023-02-14T12:21:09.134Z,11.31
2023-02-14T12:23:41.571Z,11.31
2023-02-14T12:26:17.235Z,11.27
2023-02-14T12:28:47.662Z,11.24
2023-02-14T12:31:14.361Z,11.25
2023-02-14T12:33:41.044Z,11.23
2023-02-14T12:36:17.862Z,11.24
2023-02-14T12:39:05.528Z,11.16
2023-02-14T12:41:55.399Z,11.08
2023-02-14T12:44:42.121Z,11.06
2023-02-14T12:47:41.233Z,10.98
2023-02-14T12:50:28.012Z,11.01
2023-02-14T12:53:19.286Z,11.03
2023-02-14T12:56:13.983Z,10.97
2023-02-14T12:58:43.250Z,11.04
2023-02-14T13:01:38.373Z,11.14
2023-02-14T13:04:24.220Z,11.12
2023-02-14T13:06:57.462Z,10.93
2023-02-14T13:09:59.345Z,10.89
2023-02-14T13:12:26.027Z,10.89
2023-02-14T13:15:04.885Z,10.88
2023-02-14T13:17:42.657Z,10.89
2023-02-14T13:20:36.672Z,10.95
2023-02-14T13:23:05.656Z,10.97
2023-02-14T13:25:45.377Z,11.09
2023-02-14T13:28:13.070Z,11.09
2023-02-14T13:30:40.197Z,11.10
2023-02-14T13:33:29.279Z,11.16
2023-02-14T13:35:58.489Z,11.21
2023-02-14T13:38:25.589Z,11.23
2023-02-14T13:40:53.021Z,11.27
2023-02-14T13:44:00.642Z,11.26
2023-02-14T13:46:32.676Z,11.23
2023-02-14T13:49:41.377Z,11.28
2023-02-14T13:52:09.389Z,11.27
2023-02-14T13:54:45.965Z,11.25
2023-02-14T13:57:34.297Z,11.26
2023-02-14T14:00:16.330Z,11.29
2023-02-14T14:03:15.893Z,11.23
2023-02-14T14:05:42.426Z,11.20
2023-02-14T14:08:20.975Z,11.27
2023-02-14T14:10:52.064Z,11.26
2023-02-14T14:13:40.627Z,11.26
2023-02-14T14:16:25.416Z,11.28
2023-02-14T14:19:21.159Z,11.33
2023-02-14T14:22:10.556Z,11.37
2023-02-14T14:24:40.978Z,11.40
2023-02-14T14:27:30.614Z,11.52
2023-02-14T14:29:58.537Z,11.54
2023-02-14T14:32:27.664Z,11.57
2023-02-14T14:34:56.397Z,11.65
2023-02-14T14:37:35.676Z,11.71
2023-02-14T14:40:04.913Z,11.74
2023-02-14T14:42:39.234Z,11.77
2023-02-14T14:45:24.291Z,11.78
2023-02-14T14:47:54.081Z,11.75
2023-02-14T14:50:28.546Z,11.69
2023-02-14T14:53:18.644Z,11.73
2023-02-14T14:55:45.912Z,11.73
2023-02-14T14:58:36.882Z,11.78
2023-02-14T15:01:04.287Z,11.77
2023-02-14T15:03:30.987Z,11.73
2023-02-14T15:06:08.736Z,11.67
2023-02-14T15:08:35.562Z,11.48
2023-02-14T15:11:13.279Z,11.31
2023-02-14T15:13:45.743Z,11.36
2023-02-14T15:16:54.179Z,11.42
2023-02-14T15:19:28.748Z,11.41
2023-02-14T15:21:55.421Z,11.40
2023-02-14T15:24:22.096Z,11.34
2023-02-14T15:26:48.758Z,11.24
2023-02-14T15:29:21.389Z,11.23
2023-02-14T15:31:48.173Z,11.14
2023-02-14T15:34:14.861Z,11.23
2023-02-14T15:36:41.510Z,11.37
2023-02-14T15:39:08.310Z,11.41
2023-02-14T15:41:35.283Z,11.26
2023-02-14T15:44:01.964Z,11.35
2023-02-14T15:46:35.786Z,11.24
2023-02-14T15:49:08.056Z,11.19
2023-02-14T15:51:34.715Z,11.11
2023-02-14T15:54:06.180Z,11.09
2023-02-14T15:56:45.475Z,11.00
2023-02-14T15:59:16.490Z,10.95
2023-02-14T16:01:53.929Z,10.90
2023-02-14T16:04:28.564Z,10.81
2023-02-14T16:07:21.889Z,10.92
2023-02-14T16:09:49.042Z,10.84
2023-02-14T16:12:32.240Z,10.77
2023-02-14T16:15:18.589Z,10.70
2023-02-14T16:17:45.259Z,10.54
2023-02-14T16:20:36.046Z,10.58
2023-02-14T16:23:17.851Z,10.58
2023-02-14T16:25:44.864Z,10.50
2023-02-14T16:28:11.517Z,10.40
2023-02-14T16:30:38.513Z,10.36
2023-02-14T16:33:06.725Z,10.34
2023-02-14T16:35:33.387Z,10.26
2023-02-14T16:38:00.048Z,10.16
2023-02-14T16:40:26.855Z,10.06
2023-02-14T16:42:53.508Z,9.97
2023-02-14T16:45:20.181Z,9.89
2023-02-14T16:47:47.105Z,9.80
2023-02-14T16:50:13.746Z,9.73
2023-02-14T16:52:40.411Z,9.58
2023-02-14T16:55:10.776Z,9.58
2023-02-14T16:57:39.793Z,9.54
2023-02-14T17:00:06.961Z,9.52
2023-02-14T17:02:34.303Z,9.43
2023-02-14T17:05:00.970Z,9.34
2023-02-14T17:07:28.740Z,9.33
2023-02-14T17:09:57.901Z,9.30
2023-02-14T17:12:27.184Z,9.21
2023-02-14T17:14:54.374Z,9.16
2023-02-14T17:17:21.037Z,9.08
2023-02-14T17:19:47.699Z,9.05
2023-02-14T17:22:14.352Z,8.99
2023-02-14T17:24:44.937Z,8.95
2023-02-14T17:27:11.590Z,8.94
2023-02-14T17:29:38.259Z,8.86
2023-02-14T17:32:05.141Z,8.87
2023-02-14T17:34:32.691Z,8.86
2023-02-14T17:36:59.447Z,8.86
2023-02-14T17:39:26.120Z,8.81
2023-02-14T17:41:52.770Z,8.76
2023-02-14T17:44:19.420Z,8.74
2023-02-14T17:46:46.126Z,8.69
2023-02-14T17:49:12.831Z,8.61
2023-02-14T17:51:39.487Z,8.66
2023-02-14T17:54:06.150Z,8.65
2023-02-14T17:56:32.827Z,8.65
2023-02-14T17:58:59.899Z,8.70
2023-02-14T18:01:28.063Z,8.66
2023-02-14T18:03:54.769Z,8.63
2023-02-14T18:06:21.995Z,8.60
2023-02-14T18:08:49.431Z,8.57
2023-02-14T18:11:16.596Z,8.52
2023-02-14T18:13:43.320Z,8.46
2023-02-14T18:16:11.381Z,8.39
2023-02-14T18:18:38.194Z,8.37
2023-02-14T18:21:06.267Z,8.28
2023-02-14T18:23:33.107Z,8.19
2023-02-14T18:26:01.286Z,8.15
2023-02-14T18:28:27.939Z,8.07
2023-02-14T18:30:54.620Z,8.05
2023-02-14T18:33:21.433Z,7.91
2023-02-14T18:35:48.080Z,7.79
2023-02-14T18:38:15.168Z,7.66
2023-02-14T18:40:41.837Z,7.58
2023-02-14T18:43:08.517Z,7.55
2023-02-14T18:45:36.228Z,7.48
2023-02-14T18:48:03.007Z,7.43
2023-02-14T18:50:29.663Z,7.44
2023-02-14T18:52:56.305Z,7.47
2023-02-14T18:55:22.940Z,7.48
2023-02-14T18:57:49.624Z,7.50
2023-02-14T19:00:16.327Z,7.53
2023-02-14T19:02:42.961Z,7.56
2023-02-14T19:05:09.689Z,7.58
2023-02-14T19:07:36.323Z,7.62
2023-02-14T19:10:04.930Z,7.67
2023-02-14T19:12:32.298Z,7.73
2023-02-14T19:14:59.398Z,7.66
2023-02-14T19:17:26.058Z,7.64
2023-02-14T19:19:53.138Z,7.64
2023-02-14T19:22:19.986Z,7.61
2023-02-14T19:24:46.639Z,7.56
2023-02-14T19:27:13.298Z,7.56
2023-02-14T19:29:39.935Z,7.48
2023-02-14T19:32:06.587Z,7.48
2023-02-14T19:34:33.266Z,7.45
2023-02-14T19:37:00.438Z,7.46
2023-02-14T19:39:28.361Z,7.37
2023-02-14T19:41:55.097Z,7.31
2023-02-14T19:44:23.143Z,7.27
2023-02-14T19:46:51.838Z,7.28
2023-02-14T19:49:19.428Z,7.35
2023-02-14T19:51:47.019Z,7.32
2023-02-14T19:54:13.753Z,7.32
2023-02-14T19:56:42.065Z,7.29
2023-02-14T19:59:08.762Z,7.24
2023-02-14T20:01:42.029Z,7.33
2023-02-14T20:04:10.001Z,7.29
2023-02-14T20:06:37.162Z,7.31
2023-02-14T20:09:04.629Z,7.34
2023-02-14T20:11:47.135Z,7.19
2023-02-14T20:14:13.805Z,7.17
2023-02-14T20:16:40.509Z,7.16
2023-02-14T20:19:08.652Z,7.10
2023-02-14T20:21:35.287Z,7.07
2023-02-14T20:24:02.218Z,7.07
2023-02-14T20:26:32.924Z,7.01
2023-02-14T20:29:00.372Z,7.09
2023-02-14T20:31:27.061Z,7.18
2023-02-14T20:33:53.745Z,7.22
2023-02-14T20:36:20.390Z,7.17
2023-02-14T20:38:47.077Z,7.21
2023-02-14T20:41:14.174Z,7.10
2023-02-14T20:43:40.829Z,7.01
2023-02-14T20:46:07.528Z,6.92
2023-02-14T20:48:34.333Z,6.84
2023-02-14T20:51:18.150Z,6.83
2023-02-14T20:53:44.917Z,6.77
2023-02-14T20:56:11.608Z,6.74
2023-02-14T20:58:38.303Z,6.73
2023-02-14T21:01:09.062Z,6.66
2023-02-14T21:03:35.970Z,6.58
2023-02-14T21:06:06.447Z,6.49
2023-02-14T21:08:33.172Z,6.50
2023-02-14T21:11:00.241Z,6.50
2023-02-14T21:13:27.152Z,6.48
2023-02-14T21:15:53.883Z,6.51
2023-02-14T21:18:20.609Z,6.48
2023-02-14T21:20:47.276Z,6.40
2023-02-14T21:23:13.929Z,6.31
2023-02-14T21:25:40.585Z,6.30
2023-02-14T21:28:07.210Z,6.29
2023-02-14T21:30:33.954Z,6.34
2023-02-14T21:33:00.604Z,6.38
2023-02-14T21:35:27.241Z,6.37
2023-02-14T21:37:53.888Z,6.34
2023-02-14T21:40:20.514Z,6.23
2023-02-14T21:42:47.164Z,6.27
2023-02-14T21:45:13.838Z,6.29
2023-02-14T21:47:40.472Z,6.32
2023-02-14T21:50:07.419Z,6.37
2023-02-14T21:52:34.037Z,6.36
2023-02-14T21:55:00.718Z,6.41
2023-02-14T21:57:27.410Z,6.34
2023-02-14T21:59:54.035Z,6.29
2023-02-14T22:02:20.733Z,6.18
2023-02-14T22:04:47.582Z,6.06
2023-02-14T22:07:14.247Z,6.02
2023-02-14T22:09:40.885Z,6.03
2023-02-14T22:12:07.556Z,5.98
2023-02-14T22:14:34.208Z,5.93
2023-02-14T22:17:00.862Z,5.92
2023-02-14T22:19:27.538Z,5.88
2023-02-14T22:21:54.173Z,5.84
2023-02-14T22:24:20.822Z,5.84
2023-02-14T22:26:47.481Z,5.87
2023-02-14T22:29:14.105Z,5.87
2023-02-14T22:31:42.362Z,5.87
2023-02-14T22:34:10.331Z,5.90
2023-02-14T22:36:36.963Z,5.89
2023-02-14T22:39:04.106Z,5.91
2023-02-14T22:41:30.757Z,5.96
2023-02-14T22:43:57.403Z,5.98
2023-02-14T22:46:25.676Z,5.96
2023-02-14T22:48:52.466Z,5.94
2023-02-14T22:51:22.682Z,5.91
2023-02-14T22:53:50.107Z,5.88
2023-02-14T22:56:18.651Z,5.82
2023-02-14T22:58:45.358Z,5.78
2023-02-14T23:01:15.704Z,5.80
2023-02-14T23:03:42.745Z,5.72
2023-02-14T23:06:09.826Z,5.78
2023-02-14T23:08:43.171Z,5.84
2023-02-14T23:11:11.294Z,5.86
2023-02-14T23:13:37.935Z,5.88
2023-02-14T23:16:04.593Z,5.88
2023-02-14T23:18:31.257Z,6.00
2023-02-14T23:20:57.912Z,5.92
2023-02-14T23:23:24.557Z,5.82
2023-02-14T23:25:51.174Z,5.76
2023-02-14T23:28:17.981Z,5.78
2023-02-14T23:30:44.624Z,5.71
2023-02-14T23:33:11.266Z,5.62
2023-02-14T23:35:37.912Z,5.58
2023-02-14T23:38:04.560Z,5.60
2023-02-14T23:40:31.215Z,5.62
2023-02-14T23:42:57.857Z,5.62
2023-02-14T23:45:24.639Z,5.64
2023-02-14T23:47:51.310Z,5.63
2023-02-14T23:50:18.042Z,5.58
2023-02-14T23:52:44.842Z,5.55
2023-02-14T23:55:11.772Z,5.56
2023-02-14T23:57:38.386Z,5.57
